Time;durP1;ratioP1;P1;durP2;ratioP2;P2;SDS_P1;SDS_P2;PMS_P1;PMS_P2;Temp;Humidity;BMP_temperature;BMP_pressure;BME280_temperature;BME280_humidity;BME280_pressure;Samples;Min_cycle;Max_cycle;Signal;HPM_P1;HPM_P2
2024/01/24 00:02:00;;;;;;;2.60;1.70;;;;;;;8.17;100.00;100664.09;6153159;28;20230;-71
2024/01/24 00:05:21;;;;;;;1.80;1.70;;;;;;;8.26;91.49;100666.03;6154178;28;20285;-71
2024/01/24 00:08:42;;;;;;;2.53;2.33;;;;;;;8.23;60.72;100641.25;6155959;28;20242;-70
2024/01/24 00:12:04;;;;;;;1.67;1.53;;;;;;;8.27;43.75;100629.31;6154308;28;20577;-71
2024/01/24 00:15:26;;;;;;;1.90;1.80;;;;;;;8.36;29.02;100602.56;6151682;28;21224;-70
2024/01/24 00:18:47;;;;;;;1.67;1.57;;;;;;;8.50;18.80;100604.06;6156135;28;20235;-69
2024/01/24 00:22:11;;;;;;;5.17;2.17;;;;;;;8.45;10.02;100598.25;6147853;28;20238;-69
2024/01/24 00:25:32;;;;;;;2.30;2.20;;;;;;;8.47;0.00;100582.84;6151804;28;20245;-69
2024/01/24 00:28:53;;;;;;;3.23;2.93;;;;;;;8.55;0.00;100591.94;6148097;28;20676;-70
2024/01/24 00:32:15;;;;;;;4.33;2.10;;;;;;;8.63;0.00;100583.25;6139661;28;20468;-70
2024/01/24 00:35:36;;;;;;;3.10;2.90;;;;;;;8.70;0.00;100619.34;6152731;28;20317;-69
2024/01/24 00:38:57;;;;;;;3.47;3.27;;;;;;;8.73;0.00;100568.88;6154353;28;20241;-70
2024/01/24 00:42:18;;;;;;;3.90;3.60;;;;;;;8.76;0.00;100571.28;6150740;28;20258;-71
2024/01/24 00:45:39;;;;;;;4.67;4.37;;;;;;;8.83;0.00;100553.66;6146024;28;20616;-71
2024/01/24 00:49:03;;;;;;;4.60;4.20;;;;;;;8.84;0.00;100549.16;6146830;28;20234;-71
2024/01/24 00:52:23;;;;;;;3.60;3.30;;;;;;;8.96;0.00;100552.59;6150002;28;20325;-72
2024/01/24 00:55:45;;;;;;;3.33;3.03;;;;;;;8.98;0.00;100564.06;6154293;28;22247;-71
2024/01/24 00:59:06;;;;;;;3.93;3.53;;;;;;;9.11;0.00;100705.41;6162896;28;20305;-71
2024/01/24 01:02:28;;;;;;;4.40;4.00;;;;;;;9.13;0.00;100706.13;6148522;28;20616;-72
2024/01/24 01:05:50;;;;;;;4.00;2.93;;;;;;;9.22;0.00;100707.16;6154915;28;20238;-71
2024/01/24 01:09:11;;;;;;;3.93;3.53;;;;;;;9.26;0.00;100681.72;6144778;28;20246;-71
2024/01/24 01:12:32;;;;;;;3.50;3.30;;;;;;;9.29;0.00;100743.28;6149281;28;20242;-71
2024/01/24 01:15:53;;;;;;;4.20;3.80;;;;;;;9.37;0.00;100730.88;6139556;28;20278;-71
2024/01/24 01:19:14;;;;;;;5.43;4.87;;;;;;;9.39;0.00;100666.19;6141937;28;20226;-71
2024/01/24 01:22:36;;;;;;;4.63;3.83;;;;;;;9.52;0.00;100654.22;6148061;28;20226;-70
2024/01/24 01:25:57;;;;;;;3.57;3.27;;;;;;;9.56;0.00;100620.69;6148816;28;20231;-70
2024/01/24 01:29:18;;;;;;;3.60;3.30;;;;;;;9.60;0.00;100599.72;6157464;28;21106;-70
2024/01/24 01:32:39;;;;;;;4.53;4.20;;;;;;;9.68;0.00;100592.66;6145770;28;20230;-70
2024/01/24 01:36:00;;;;;;;3.63;3.33;;;;;;;9.73;0.00;100572.56;6148504;28;20235;-69
2024/01/24 01:39:22;;;;;;;3.27;2.97;;;;;;;9.76;0.00;100550.75;6156679;28;20230;-70
2024/01/24 01:42:44;;;;;;;4.17;3.77;;;;;;;9.86;0.00;100551.63;6156701;28;20234;-70
2024/01/24 01:46:11;;;;;;;3.57;3.27;;;;;;;9.91;0.00;100531.34;6145646;28;20536;-70
2024/01/24 01:49:32;;;;;;;3.07;2.80;;;;;;;10.04;0.00;100542.72;6150588;28;20573;-70
2024/01/24 01:52:53;;;;;;;2.70;2.50;;;;;;;10.11;0.00;100471.16;6143634;28;20237;-70
2024/01/24 01:56:18;;;;;;;3.53;3.23;;;;;;;10.15;0.00;100442.97;6155404;28;20230;-70
2024/01/24 01:59:41;;;;;;;6.03;3.37;;;;;;;10.21;0.00;100473.84;6165516;28;20883;-70
2024/01/24 02:03:02;;;;;;;1.57;1.47;;;;;;;10.28;0.00;100450.72;6146418;28;20277;-68
2024/01/24 02:06:23;;;;;;;2.70;2.50;;;;;;;10.27;0.00;100405.91;6144474;28;20222;-70
2024/01/24 02:09:44;;;;;;;2.63;2.53;;;;;;;10.32;0.00;100382.94;6154698;28;20234;-70
2024/01/24 02:13:06;;;;;;;2.57;2.37;;;;;;;10.40;0.00;100374.13;6164298;28;20557;-70
2024/01/24 02:16:27;;;;;;;2.30;2.10;;;;;;;10.49;0.00;100365.16;6142105;28;20223;-72
2024/01/24 02:19:48;;;;;;;2.87;2.67;;;;;;;10.45;0.00;100207.47;6162933;28;20230;-70
2024/01/24 02:23:12;;;;;;;3.73;3.33;;;;;;;10.61;0.00;100129.47;6158059;28;20274;-70
2024/01/24 02:26:34;;;;;;;3.60;2.73;;;;;;;10.59;0.00;100047.06;6139081;28;20600;-70
2024/01/24 02:29:56;;;;;;;3.33;2.40;;;;;;;10.70;0.00;100036.88;6157021;28;20233;-70
2024/01/24 02:33:17;;;;;;;3.60;3.30;;;;;;;10.68;0.00;99994.94;6147479;28;20226;-70
2024/01/24 02:36:38;;;;;;;2.77;2.57;;;;;;;10.70;0.00;100007.22;6139930;28;20499;-70
2024/01/24 02:39:59;;;;;;;3.70;3.43;;;;;;;10.73;0.00;99981.81;6156584;28;20234;-71
2024/01/24 02:43:21;;;;;;;3.10;2.90;;;;;;;10.71;0.00;99978.41;6158383;28;20238;-72
2024/01/24 02:46:41;;;;;;;2.70;2.50;;;;;;;10.76;0.00;99984.19;6149585;28;20709;-72
2024/01/24 02:50:04;;;;;;;3.70;3.40;;;;;;;10.86;0.00;100006.50;6170346;28;20226;-71
2024/01/24 02:53:25;;;;;;;3.47;3.17;;;;;;;10.89;0.00;99968.44;6159185;28;20238;-71
2024/01/24 02:56:46;;;;;;;3.50;3.20;;;;;;;10.99;0.00;99944.88;6160556;28;20234;-72
2024/01/24 03:00:10;;;;;;;3.43;3.20;;;;;;;11.03;0.00;99903.09;6156798;28;20537;-70
2024/01/24 03:03:31;;;;;;;4.00;3.63;;;;;;;10.95;0.00;99903.91;6161422;28;23008;-72
2024/01/24 03:06:52;;;;;;;3.60;3.40;;;;;;;10.97;0.00;99909.97;6148310;28;20692;-71
2024/01/24 03:10:13;;;;;;;3.83;3.53;;;;;;;10.98;0.00;99916.22;6155744;28;20238;-71
2024/01/24 03:13:34;;;;;;;4.03;3.73;;;;;;;10.94;0.00;99914.84;6156636;28;20253;-70
2024/01/24 03:16:57;;;;;;;4.37;3.97;;;;;;;10.97;0.00;99914.53;6140742;28;20230;-70
2024/01/24 03:20:18;;;;;;;3.10;2.50;;;;;;;11.08;0.00;99960.06;6149820;28;20317;-70
2024/01/24 03:23:40;;;;;;;3.50;3.17;;;;;;;11.15;0.00;99961.13;6159370;28;20242;-71
2024/01/24 03:27:02;;;;;;;3.23;2.30;;;;;;;11.13;0.00;99910.06;6149677;28;20226;-70
2024/01/24 03:30:23;;;;;;;2.50;2.40;;;;;;;11.20;0.00;99886.78;6123895;28;21485;-70
2024/01/24 03:33:45;;;;;;;1.90;1.80;;;;;;;11.15;0.00;99850.53;6148683;28;20235;-71
2024/01/24 03:37:06;;;;;;;1.97;1.80;;;;;;;11.20;0.00;99867.91;6150023;28;20652;-70
2024/01/24 03:40:27;;;;;;;1.17;1.17;;;;;;;11.22;0.00;100324.53;6150914;28;20938;-71
2024/01/24 03:43:49;;;;;;;0.93;0.93;;;;;;;11.16;0.00;100359.38;6158140;28;20234;-70
2024/01/24 03:47:09;;;;;;;1.60;1.50;;;;;;;11.20;0.00;100360.78;6138028;28;20235;-70
2024/01/24 03:50:31;;;;;;;1.10;1.00;;;;;;;11.19;0.00;100423.81;6147009;28;20255;-71
2024/01/24 03:53:52;;;;;;;5.07;1.83;;;;;;;10.76;0.00;100427.19;6160342;28;20233;-70
2024/01/24 03:57:13;;;;;;;3.47;1.67;;;;;;;10.60;0.00;100404.56;6157959;28;20238;-71
2024/01/24 04:00:34;;;;;;;3.20;1.60;;;;;;;10.82;0.00;100414.94;6146767;28;20353;-72
2024/01/24 04:03:55;;;;;;;4.10;1.67;;;;;;;10.91;0.00;100387.91;6146667;28;20237;-69
2024/01/24 04:07:17;;;;;;;3.13;1.90;;;;;;;10.69;0.00;100392.84;6151653;28;20231;-72
2024/01/24 04:10:38;;;;;;;7.10;2.07;;;;;;;10.52;0.00;100283.13;6148016;28;20237;-70
2024/01/24 04:14:01;;;;;;;4.10;2.53;;;;;;;10.22;0.00;100336.31;6157139;28;20227;-71
2024/01/24 04:17:22;;;;;;;2.77;1.77;;;;;;;10.30;0.00;100319.44;6129659;28;20270;-69
2024/01/24 04:20:42;;;;;;;1.70;1.30;;;;;;;10.38;0.00;100362.63;6152311;28;20246;-70
2024/01/24 04:24:05;;;;;;;5.90;1.90;;;;;;;10.30;0.00;100349.91;6160223;28;20222;-71
2024/01/24 04:27:27;;;;;;;4.47;1.93;;;;;;;10.32;0.00;100347.06;6153884;28;20230;-70
2024/01/24 04:30:48;;;;;;;6.53;2.37;;;;;;;10.29;0.00;100326.66;6146272;28;20596;-70
2024/01/24 04:34:08;;;;;;;2.57;1.83;;;;;;;10.41;0.00;100319.22;6162972;28;21093;-70
2024/01/24 04:37:29;;;;;;;3.27;1.67;;;;;;;10.62;0.00;100338.69;6150051;28;20234;-71
2024/01/24 04:40:52;;;;;;;4.77;2.03;;;;;;;10.68;0.00;100342.66;6153289;28;20261;-70
2024/01/24 04:44:13;;;;;;;2.47;1.47;;;;;;;10.66;0.00;100348.16;6152904;28;20265;-71
2024/01/24 04:47:35;;;;;;;5.37;2.13;;;;;;;10.69;0.00;100296.66;6150185;28;20226;-71
2024/01/24 04:50:55;;;;;;;6.23;2.70;;;;;;;10.60;5.18;100335.31;6138675;28;20226;-71
2024/01/24 04:54:16;;;;;;;2.67;2.17;;;;;;;10.67;0.00;101053.50;6156279;28;20398;-71
2024/01/24 04:57:40;;;;;;;5.20;2.47;;;;;;;10.52;0.00;100359.47;6150937;28;20250;-71
2024/01/24 05:01:01;;;;;;;8.13;2.73;;;;;;;10.55;0.00;100377.19;6142622;28;20242;-71
2024/01/24 05:04:21;;;;;;;4.33;2.13;;;;;;;10.55;0.00;100334.06;6157035;28;20333;-71
2024/01/24 05:07:42;;;;;;;8.03;2.30;;;;;;;10.53;0.00;100363.00;6145478;28;20230;-71
2024/01/24 05:11:04;;;;;;;5.27;2.70;;;;;;;10.64;0.00;100370.91;6144177;28;20230;-71
2024/01/24 05:14:26;;;;;;;11.20;3.53;;;;;;;10.59;0.00;100354.31;6137361;28;20231;-72
2024/01/24 05:17:47;;;;;;;9.40;4.20;;;;;;;10.62;0.00;100325.22;6142172;28;20921;-71
2024/01/24 05:21:08;;;;;;;9.80;3.57;;;;;;;10.81;0.00;100302.69;6144651;28;20474;-72
2024/01/24 05:24:30;;;;;;;11.77;3.63;;;;;;;10.82;13.53;100382.59;6155546;28;20218;-71
2024/01/24 05:27:52;;;;;;;18.33;4.63;;;;;;;10.80;65.89;100409.72;6147139;28;20288;-70
2024/01/24 05:31:14;;;;;;;6.60;3.07;;;;;;;10.90;100.00;100377.28;6138148;28;20254;-71
2024/01/24 05:34:36;;;;;;;16.97;5.67;;;;;;;10.83;100.00;100395.06;6155637;28;20234;-72
2024/01/24 05:37:57;;;;;;;18.37;5.87;;;;;;;10.88;100.00;100390.94;6146854;28;20317;-71
2024/01/24 05:41:18;;;;;;;11.90;3.67;;;;;;;10.98;100.00;100378.22;6150370;28;20239;-71
2024/01/24 05:44:38;;;;;;;8.73;4.93;;;;;;;10.97;100.00;100383.78;6152362;28;20329;-70
2024/01/24 05:48:01;;;;;;;14.30;4.27;;;;;;;11.00;100.00;100392.41;6129199;28;20329;-70
2024/01/24 05:51:22;;;;;;;13.50;4.43;;;;;;;10.98;100.00;100407.91;6123437;28;20501;-71
2024/01/24 05:54:42;;;;;;;18.50;3.73;;;;;;;10.66;100.00;100425.53;6156927;28;20246;-71
2024/01/24 05:58:05;;;;;;;12.50;4.77;;;;;;;10.60;100.00;100421.56;6153282;28;20779;-70
2024/01/24 06:01:26;;;;;;;11.90;5.33;;;;;;;10.61;100.00;100427.81;6124759;28;20304;-70
2024/01/24 06:04:49;;;;;;;12.77;4.97;;;;;;;10.68;100.00;100437.81;6150466;28;20242;-71
2024/01/24 06:08:10;;;;;;;11.27;4.37;;;;;;;10.64;100.00;100427.50;6156599;28;20242;-72
2024/01/24 06:11:30;;;;;;;15.57;4.57;;;;;;;10.83;100.00;100422.88;6147949;28;20234;-71
2024/01/24 06:14:54;;;;;;;9.13;3.73;;;;;;;10.95;100.00;100429.75;6154346;28;20945;-72
2024/01/24 06:18:15;;;;;;;16.33;5.30;;;;;;;10.98;100.00;100444.81;6151310;28;20219;-72
2024/01/24 06:21:37;;;;;;;13.50;5.67;;;;;;;10.93;100.00;100457.91;6137082;28;20313;-72
2024/01/24 06:25:01;;;;;;;10.73;4.90;;;;;;;10.82;100.00;100444.59;6160629;28;20309;-71
2024/01/24 06:28:22;;;;;;;20.93;5.77;;;;;;;10.98;100.00;100466.38;6156268;28;20233;-71
2024/01/24 06:31:42;;;;;;;13.63;5.87;;;;;;;10.95;100.00;100431.63;6143042;28;20250;-70
2024/01/24 06:35:04;;;;;;;12.10;4.70;;;;;;;10.93;100.00;100468.69;6154593;28;20342;-67
2024/01/24 06:38:26;;;;;;;9.80;4.60;;;;;;;10.91;100.00;100449.13;6160079;28;20254;-69
2024/01/24 06:41:47;;;;;;;15.50;3.93;;;;;;;10.88;100.00;100465.56;6149076;28;20314;-68
2024/01/24 06:45:09;;;;;;;8.50;4.60;;;;;;;10.66;100.00;100445.22;6147286;28;20540;-67
2024/01/24 06:48:30;;;;;;;13.40;5.67;;;;;;;10.52;100.00;100467.25;6146221;28;20306;-70
2024/01/24 06:51:51;;;;;;;9.20;3.53;;;;;;;10.57;100.00;100466.81;6150336;28;20235;-71
2024/01/24 06:55:15;;;;;;;14.43;4.43;;;;;;;10.70;100.00;100475.44;6153502;28;20253;-71
2024/01/24 06:58:37;;;;;;;8.13;4.40;;;;;;;10.71;100.00;100458.25;6155443;28;20226;-71
2024/01/24 07:01:59;;;;;;;15.70;4.67;;;;;;;10.74;100.00;100482.25;6140180;28;20262;-69
2024/01/24 07:05:20;;;;;;;16.57;6.10;;;;;;;10.80;100.00;100460.94;6137373;28;20227;-68
2024/01/24 07:08:41;;;;;;;18.13;4.93;;;;;;;10.76;100.00;100466.78;6149299;28;20632;-68
2024/01/24 07:12:04;;;;;;;10.20;5.20;;;;;;;10.73;100.00;100470.59;6150753;28;20238;-68
2024/01/24 07:15:26;;;;;;;12.23;5.97;;;;;;;10.68;100.00;100470.19;6148045;28;20245;-69
2024/01/24 07:18:47;;;;;;;14.37;4.30;;;;;;;10.75;100.00;100455.13;6144597;28;20238;-68
2024/01/24 07:22:08;;;;;;;10.47;4.17;;;;;;;10.73;100.00;100475.13;6139430;28;20262;-72
2024/01/24 07:25:29;;;;;;;12.90;4.37;;;;;;;10.64;100.00;100476.03;6144260;28;20230;-69
2024/01/24 07:28:51;;;;;;;14.73;6.43;;;;;;;10.52;100.00;100510.38;6146533;28;21077;-68
2024/01/24 07:32:12;;;;;;;12.47;6.60;;;;;;;10.34;100.00;100515.66;6144389;28;20325;-67
2024/01/24 07:35:33;;;;;;;17.67;5.47;;;;;;;9.89;100.00;100509.09;6160965;28;20606;-68
2024/01/24 07:38:54;;;;;;;18.17;6.77;;;;;;;9.96;100.00;100509.41;6163981;28;20230;-69
2024/01/24 07:42:15;;;;;;;17.37;5.50;;;;;;;10.12;100.00;100528.56;6138672;28;20539;-69
2024/01/24 07:45:37;;;;;;;22.83;5.60;;;;;;;10.22;100.00;100524.03;6151752;28;20243;-71
2024/01/24 07:48:58;;;;;;;13.10;6.00;;;;;;;10.20;100.00;100517.94;6156055;28;20235;-73
2024/01/24 07:52:19;;;;;;;15.77;5.20;;;;;;;10.20;100.00;100534.94;6148718;28;20235;-69
2024/01/24 07:55:40;;;;;;;14.37;5.40;;;;;;;10.18;100.00;100514.56;6139252;28;23470;-69
2024/01/24 07:59:01;;;;;;;10.40;5.80;;;;;;;10.33;100.00;100545.44;6158440;28;20253;-72
2024/01/24 08:02:24;;;;;;;14.90;6.03;;;;;;;10.43;100.00;100538.19;6147201;28;20351;-71
2024/01/24 08:05:45;;;;;;;24.47;7.93;;;;;;;10.50;100.00;100542.00;6138904;28;20269;-69
2024/01/24 08:09:06;;;;;;;21.03;6.57;;;;;;;10.51;100.00;100550.97;6158378;28;20230;-71
2024/01/24 08:12:27;;;;;;;21.53;6.67;;;;;;;10.49;100.00;100561.88;6160309;28;20537;-69
2024/01/24 08:15:48;;;;;;;13.50;5.50;;;;;;;10.50;100.00;100546.53;6149818;28;21036;-71
2024/01/24 08:19:10;;;;;;;12.70;5.53;;;;;;;10.49;100.00;100587.97;6161217;28;20230;-70
2024/01/24 08:22:31;;;;;;;11.83;7.57;;;;;;;10.68;100.00;100561.00;6156410;28;20234;-71
2024/01/24 08:25:53;;;;;;;19.00;5.60;;;;;;;10.66;100.00;100565.69;6152592;28;20235;-71
2024/01/24 08:29:13;;;;;;;14.27;6.60;;;;;;;10.62;100.00;100581.28;6161802;28;20250;-71
2024/01/24 08:32:40;;;;;;;14.37;7.13;;;;;;;10.56;100.00;100597.19;6146090;28;20234;-70
2024/01/24 08:36:02;;;;;;;18.23;6.00;;;;;;;10.61;100.00;100571.50;6154949;28;20277;-69
2024/01/24 08:39:23;;;;;;;19.67;6.20;;;;;;;10.67;100.00;100595.19;6157108;28;20238;-70
2024/01/24 08:42:44;;;;;;;19.80;8.37;;;;;;;10.67;100.00;100595.19;6155496;28;20359;-71
2024/01/24 08:46:05;;;;;;;15.60;6.37;;;;;;;10.63;100.00;100587.53;6148959;28;20226;-72
2024/01/24 08:49:29;;;;;;;10.40;5.57;;;;;;;10.66;100.00;100585.41;6156457;28;20222;-68
2024/01/24 08:52:52;;;;;;;21.07;7.50;;;;;;;10.62;100.00;100602.84;6151157;28;20242;-69
2024/01/24 08:56:14;;;;;;;20.33;6.43;;;;;;;10.62;100.00;100602.03;6143422;28;20230;-70
2024/01/24 08:59:35;;;;;;;14.93;5.60;;;;;;;10.60;100.00;100623.72;6155027;28;20555;-70
2024/01/24 09:02:56;;;;;;;16.00;6.57;;;;;;;10.60;100.00;100625.56;6134373;28;20265;-68
2024/01/24 09:06:18;;;;;;;17.53;6.03;;;;;;;10.64;100.00;100563.13;6152031;28;20612;-70
2024/01/24 09:09:40;;;;;;;22.47;6.93;;;;;;;10.69;100.00;100605.81;6153216;28;20306;-70
2024/01/24 09:13:01;;;;;;;24.47;6.77;;;;;;;10.67;100.00;100624.84;6154507;28;20511;-69
2024/01/24 09:16:22;;;;;;;18.97;7.00;;;;;;;10.67;100.00;100615.91;6147923;28;20234;-71
2024/01/24 09:19:44;;;;;;;21.03;6.50;;;;;;;10.66;100.00;100604.25;6155062;28;20516;-71
2024/01/24 09:23:05;;;;;;;19.80;7.40;;;;;;;10.60;100.00;100663.31;6151872;28;20246;-70
2024/01/24 09:26:27;;;;;;;14.93;7.37;;;;;;;10.60;100.00;100623.72;6140587;28;20234;-70
2024/01/24 09:29:48;;;;;;;17.97;6.93;;;;;;;10.58;100.00;100633.78;6165634;28;20234;-69
2024/01/24 09:33:09;;;;;;;10.50;5.23;;;;;;;10.56;100.00;100641.16;6149893;28;20234;-68
2024/01/24 09:36:30;;;;;;;21.00;7.73;;;;;;;10.59;100.00;100661.59;6146517;28;20234;-69
2024/01/24 09:39:52;;;;;;;14.07;4.80;;;;;;;10.62;100.00;100664.03;6142924;28;20234;-70
2024/01/24 09:43:15;;;;;;;14.47;6.43;;;;;;;10.61;100.00;100641.59;6156088;28;20262;-70
2024/01/24 09:46:37;;;;;;;11.33;5.50;;;;;;;10.59;100.00;100630.09;6152283;28;20222;-69
2024/01/24 09:49:59;;;;;;;23.27;7.73;;;;;;;10.57;100.00;100650.97;6157588;28;20617;-69
2024/01/24 09:53:21;;;;;;;12.83;5.83;;;;;;;10.57;100.00;100636.63;6150218;28;20650;-69
2024/01/24 09:56:44;;;;;;;15.20;6.30;;;;;;;10.58;100.00;100676.91;6153741;28;20237;-70
2024/01/24 10:00:09;;;;;;;17.13;6.03;;;;;;;10.55;100.00;100661.03;6160247;28;20495;-69
2024/01/24 10:03:31;;;;;;;15.20;5.97;;;;;;;10.49;100.00;100677.78;6150892;28;20246;-68
2024/01/24 10:06:53;;;;;;;15.20;4.87;;;;;;;10.54;100.00;100670.09;6131747;28;20230;-69
2024/01/24 10:10:15;;;;;;;14.70;5.77;;;;;;;10.52;100.00;100692.78;6144677;28;20301;-69
2024/01/24 10:13:37;;;;;;;9.10;4.63;;;;;;;10.50;100.00;100649.81;6156135;28;20226;-70
2024/01/24 10:17:00;;;;;;;15.47;4.87;;;;;;;10.49;100.00;100640.03;6145136;28;20246;-70
2024/01/24 10:20:22;;;;;;;18.27;6.97;;;;;;;10.54;100.00;100658.47;6146573;28;20230;-69
2024/01/24 10:23:43;;;;;;;15.60;6.60;;;;;;;10.54;100.00;100655.75;6157734;28;20234;-70
2024/01/24 10:27:05;;;;;;;21.03;6.13;;;;;;;10.55;100.00;100662.88;6158629;28;20226;-69
2024/01/24 10:30:28;;;;;;;13.60;6.80;;;;;;;10.56;100.00;100673.50;6152203;28;20806;-70
2024/01/24 10:33:54;;;;;;;12.60;4.97;;;;;;;10.37;100.00;100660.00;6145886;28;20890;-70
2024/01/24 10:37:18;;;;;;;15.30;6.43;;;;;;;10.23;100.00;100714.31;6141099;28;20234;-70
2024/01/24 10:40:40;;;;;;;13.03;7.27;;;;;;;10.15;100.00;100671.03;6148909;28;20531;-69
2024/01/24 10:44:06;;;;;;;15.90;6.07;;;;;;;10.06;100.00;100685.28;6161859;28;20238;-69
2024/01/24 10:47:27;;;;;;;13.23;6.43;;;;;;;10.11;100.00;100696.56;6145737;28;20246;-69
2024/01/24 10:50:51;;;;;;;14.83;5.47;;;;;;;10.19;100.00;100707.50;6149260;28;20245;-69
2024/01/24 10:54:15;;;;;;;11.93;5.93;;;;;;;10.20;100.00;100680.41;6164306;28;20226;-69
2024/01/24 10:57:36;;;;;;;12.90;6.03;;;;;;;10.14;100.00;100702.50;6153509;28;20251;-67
2024/01/24 11:00:57;;;;;;;16.20;6.77;;;;;;;10.16;100.00;100702.38;6147493;28;20617;-68
2024/01/24 11:04:21;;;;;;;15.10;6.40;;;;;;;10.16;100.00;100716.69;6158571;28;20226;-68
2024/01/24 11:07:52;;;;;;;13.67;6.10;;;;;;;10.03;100.00;100713.38;6152757;28;21032;-68
2024/01/24 11:11:15;;;;;;;16.17;6.17;;;;;;;9.64;100.00;100752.72;6150147;28;20233;-70
2024/01/24 11:14:36;;;;;;;16.93;6.37;;;;;;;9.53;100.00;100739.34;6165220;28;20231;-70
2024/01/24 11:18:19;;;;;;;20.60;7.07;;;;;;;9.54;100.00;100762.59;6144940;28;20603;-69
2024/01/24 11:21:39;;;;;;;13.77;5.90;;;;;;;9.45;100.00;100790.28;6149962;28;20230;-69
2024/01/24 11:25:04;;;;;;;31.70;7.23;;;;;;;9.52;100.00;100753.78;6160286;28;20235;-68
2024/01/24 11:28:25;;;;;;;14.63;4.93;;;;;;;9.43;100.00;100746.50;6157732;28;20234;-67
2024/01/24 11:31:47;;;;;;;18.27;7.23;;;;;;;9.50;100.00;100789.88;6148133;28;20324;-71
2024/01/24 11:35:26;;;;;;;11.37;5.93;;;;;;;9.60;100.00;100775.50;6155675;28;20459;-70
2024/01/24 11:38:47;;;;;;;24.57;8.33;;;;;;;9.41;100.00;100740.41;6156554;28;20966;-69
2024/01/24 11:42:42;;;;;;;16.80;6.40;;;;;;;9.33;100.00;100787.78;6159092;28;20729;-68
2024/01/24 11:46:05;;;;;;;13.07;6.17;;;;;;;9.31;100.00;100777.16;6052941;28;20242;-69
2024/01/24 11:49:29;;;;;;;10.23;5.50;;;;;;;9.18;100.00;100816.00;6145553;28;20238;-69
2024/01/24 11:52:50;;;;;;;24.83;8.27;;;;;;;9.10;100.00;100802.31;6152661;28;20243;-70
2024/01/24 11:56:14;;;;;;;18.07;6.93;;;;;;;8.92;100.00;100801.16;6159756;28;20664;-69
2024/01/24 11:59:36;;;;;;;17.43;6.50;;;;;;;8.76;100.00;100832.00;6163593;28;20231;-69
2024/01/24 12:02:58;;;;;;;16.63;6.63;;;;;;;8.60;100.00;100823.47;6149682;28;20254;-68
2024/01/24 12:06:21;;;;;;;19.20;7.17;;;;;;;8.47;100.00;100838.03;6162856;28;20227;-67
2024/01/24 12:09:42;;;;;;;14.67;5.77;;;;;;;8.54;100.00;100818.59;6159353;28;20250;-69
2024/01/24 12:13:04;;;;;;;14.87;6.53;;;;;;;8.54;100.00;100840.09;6156779;28;20242;-69
2024/01/24 12:16:28;;;;;;;14.97;8.30;;;;;;;8.57;100.00;100853.28;6146078;28;20231;-69
2024/01/24 12:19:49;;;;;;;16.47;6.03;;;;;;;8.71;100.00;100853.03;6150625;28;20298;-65
2024/01/24 12:23:15;;;;;;;19.60;6.53;;;;;;;8.83;100.00;100854.72;6149204;28;20239;-72
2024/01/24 12:26:36;;;;;;;14.70;6.63;;;;;;;8.95;100.00;100876.19;6141904;28;20238;-67
2024/01/24 12:29:57;;;;;;;21.97;7.80;;;;;;;9.10;100.00;100837.25;6145374;28;20613;-70
2024/01/24 12:33:20;;;;;;;19.97;9.53;;;;;;;8.93;100.00;100876.31;6147673;28;20243;-69
2024/01/24 12:36:43;;;;;;;29.53;8.37;;;;;;;8.99;100.00;100858.84;6146670;28;20321;-69
2024/01/24 12:40:09;;;;;;;17.83;6.70;;;;;;;9.17;100.00;100804.38;6150274;28;20231;-69
2024/01/24 12:43:31;;;;;;;17.77;6.20;;;;;;;9.40;100.00;100889.38;6150040;28;20239;-72
2024/01/24 12:46:56;;;;;;;14.23;6.73;;;;;;;9.56;100.00;100878.16;6143727;28;20233;-71
2024/01/24 12:50:19;;;;;;;17.57;7.73;;;;;;;9.68;100.00;100874.41;6157021;28;20231;-68
2024/01/24 12:53:40;;;;;;;14.23;6.97;;;;;;;9.76;100.00;100857.63;6162746;28;20226;-69
2024/01/24 12:57:01;;;;;;;14.87;7.27;;;;;;;9.78;100.00;100869.97;6148464;28;20230;-72
2024/01/24 13:00:22;;;;;;;18.00;7.50;;;;;;;9.81;100.00;100874.22;6158473;28;20238;-69
2024/01/24 13:03:43;;;;;;;13.13;6.33;;;;;;;9.90;100.00;100897.69;6150936;28;21209;-69
2024/01/24 13:07:06;;;;;;;17.90;6.47;;;;;;;9.87;100.00;100911.41;6139263;28;20699;-69
2024/01/24 13:10:28;;;;;;;17.73;6.20;;;;;;;9.81;100.00;100891.25;6144283;28;20236;-71
2024/01/24 13:13:49;;;;;;;16.33;7.00;;;;;;;9.84;100.00;100874.84;6159078;28;20234;-70
2024/01/24 13:17:11;;;;;;;24.73;6.27;;;;;;;9.85;100.00;100895.38;6147904;28;20231;-70
2024/01/24 13:20:32;;;;;;;15.33;6.43;;;;;;;9.55;100.00;100892.63;6151244;28;20265;-68
2024/01/24 13:23:56;;;;;;;19.13;7.37;;;;;;;9.65;100.00;100898.91;6161742;28;20369;-68
2024/01/24 13:27:17;;;;;;;25.00;8.83;;;;;;;9.77;100.00;100943.63;6150778;28;20243;-70
2024/01/24 13:30:38;;;;;;;30.67;7.73;;;;;;;9.83;100.00;100986.19;6154728;28;20258;-69
2024/01/24 13:33:59;;;;;;;22.10;8.20;;;;;;;9.85;100.00;100946.53;6160035;28;20238;-69
2024/01/24 13:37:20;;;;;;;23.27;8.27;;;;;;;9.79;100.00;100960.50;6144638;28;20227;-68
2024/01/24 13:40:44;;;;;;;21.70;9.23;;;;;;;9.83;100.00;100961.97;6145307;28;20239;-67
2024/01/24 13:44:05;;;;;;;16.47;7.20;;;;;;;9.84;100.00;100976.28;6148417;28;20635;-69
2024/01/24 13:47:26;;;;;;;16.67;7.50;;;;;;;9.84;100.00;100970.91;6138486;28;20243;-67
2024/01/24 13:50:47;;;;;;;16.27;7.60;;;;;;;9.82;100.00;100976.44;6140045;28;20231;-69
2024/01/24 13:54:08;;;;;;;25.87;8.47;;;;;;;9.87;100.00;100979.56;6145566;28;20234;-68
2024/01/24 13:57:30;;;;;;;21.27;8.47;;;;;;;9.85;100.00;101015.69;6141539;28;20321;-70
2024/01/24 14:00:51;;;;;;;22.47;9.47;;;;;;;9.84;100.00;100992.44;6141847;28;20243;-70
2024/01/24 14:04:12;;;;;;;22.07;9.27;;;;;;;9.81;100.00;101033.94;6146152;28;20585;-68
2024/01/24 14:07:33;;;;;;;23.60;10.13;;;;;;;9.86;100.00;101038.94;6152135;28;20321;-70
2024/01/24 14:10:54;;;;;;;22.87;9.27;;;;;;;9.87;100.00;101036.13;6149606;28;20230;-72
2024/01/24 14:14:17;;;;;;;17.90;8.23;;;;;;;9.79;100.00;101032.34;6157534;28;20234;-69
2024/01/24 14:17:38;;;;;;;22.87;8.80;;;;;;;9.81;100.00;101031.25;6148635;28;20247;-70
2024/01/24 14:20:59;;;;;;;25.93;7.80;;;;;;;9.81;100.00;101042.00;6150258;28;20235;-69
2024/01/24 14:24:20;;;;;;;24.63;9.67;;;;;;;9.84;100.00;101070.53;6158094;28;20238;-69
2024/01/24 14:27:42;;;;;;;22.17;10.40;;;;;;;9.82;100.00;101061.72;6152424;28;20222;-68
2024/01/24 14:31:05;;;;;;;22.87;7.70;;;;;;;9.85;100.00;101080.28;6145155;28;20761;-68
2024/01/24 14:34:25;;;;;;;20.20;8.57;;;;;;;9.80;100.00;101063.69;6161266;28;20534;-71
2024/01/24 14:37:46;;;;;;;22.83;9.60;;;;;;;9.79;100.00;101097.81;6160608;28;20263;-70
2024/01/24 14:41:07;;;;;;;23.03;8.73;;;;;;;9.77;100.00;101093.53;6152083;28;20258;-69
2024/01/24 14:44:28;;;;;;;25.87;8.87;;;;;;;9.79;100.00;101103.22;6165928;28;20230;-70
2024/01/24 14:47:51;;;;;;;22.77;8.63;;;;;;;9.78;100.00;101106.91;6153950;28;20246;-68
2024/01/24 14:51:12;;;;;;;30.27;8.67;;;;;;;9.72;100.00;101120.81;6152976;28;20234;-68
2024/01/24 14:54:33;;;;;;;20.73;7.97;;;;;;;9.79;100.00;101137.34;6162064;28;20242;-68
2024/01/24 14:57:54;;;;;;;17.17;7.93;;;;;;;9.79;100.00;101143.59;6149811;28;20334;-70
2024/01/24 15:01:17;;;;;;;20.80;10.03;;;;;;;9.77;100.00;101118.63;6146870;28;20532;-70
2024/01/24 15:04:40;;;;;;;17.57;9.33;;;;;;;9.76;100.00;101149.25;6162142;28;20250;-71
2024/01/24 15:08:01;;;;;;;25.80;9.40;;;;;;;9.71;100.00;101164.91;6154716;28;20671;-71
2024/01/24 15:11:22;;;;;;;16.30;7.70;;;;;;;9.68;100.00;101178.59;6146089;28;20246;-70
2024/01/24 15:14:43;;;;;;;26.33;9.47;;;;;;;9.66;100.00;101167.97;6164835;28;20505;-73
2024/01/24 15:18:03;;;;;;;21.80;8.93;;;;;;;9.68;100.00;101164.28;6144946;28;20234;-74
2024/01/24 15:21:26;;;;;;;23.07;8.67;;;;;;;9.64;100.00;101186.06;6159319;28;20231;-73
2024/01/24 15:24:49;;;;;;;17.23;8.50;;;;;;;9.64;100.00;101220.19;6164802;28;20234;-73
2024/01/24 15:28:10;;;;;;;25.70;8.47;;;;;;;9.63;100.00;101211.28;6171466;28;20225;-73
2024/01/24 15:31:31;;;;;;;26.73;8.07;;;;;;;9.63;100.00;101213.13;6143356;28;20473;-72
2024/01/24 15:34:52;;;;;;;31.10;11.50;;;;;;;9.64;100.00;101212.13;6164433;28;20636;-72